createdAt,value
2019-05-06T00:01:37.733Z,75.70
2019-05-06T00:06:47.288Z,75.90
2019-05-06T00:11:58.291Z,76.10
2019-05-06T00:17:05.943Z,76.40
2019-05-06T00:22:14.065Z,76.30
2019-05-06T00:27:38.354Z,76.50
2019-05-06T00:32:45.534Z,76.80
2019-05-06T00:38:37.240Z,77.10
2019-05-06T00:43:04.665Z,77.30
2019-05-06T00:48:16.431Z,77.30
2019-05-06T00:53:24.614Z,77.10
2019-05-06T00:58:34.702Z,77.20
2019-05-06T01:03:40.845Z,77.70
2019-05-06T01:08:48.325Z,77.80
2019-05-06T01:14:00.704Z,78.10
2019-05-06T01:19:10.935Z,78.30
2019-05-06T01:24:18.390Z,78.60
2019-05-06T01:29:24.043Z,78.50
2019-05-06T01:34:40.279Z,78.80
2019-05-06T01:39:48.530Z,78.90
2019-05-06T01:44:58.323Z,79.10
2019-05-06T01:50:05.804Z,79.00
2019-05-06T01:55:14.162Z,79.10
2019-05-06T02:00:25.113Z,79.10
2019-05-06T02:05:44.398Z,79.10
2019-05-06T02:10:54.387Z,79.10
2019-05-06T02:15:59.486Z,79.50
2019-05-06T02:21:14.678Z,79.50
2019-05-06T02:26:20.147Z,79.10
2019-05-06T02:31:47.620Z,79.20
2019-05-06T02:37:00.804Z,79.20
2019-05-06T02:42:07.685Z,79.10
2019-05-06T02:47:25.779Z,79.50
2019-05-06T02:52:36.612Z,79.40
2019-05-06T02:57:53.332Z,79.40
2019-05-06T03:02:58.546Z,80.20
2019-05-06T03:08:07.640Z,79.40
2019-05-06T03:13:14.567Z,79.40
2019-05-06T03:18:25.253Z,79.40
2019-05-06T03:23:36.655Z,79.40
2019-05-06T03:28:44.047Z,80.00
2019-05-06T03:34:22.248Z,79.30
2019-05-06T03:39:27.389Z,79.90
2019-05-06T03:44:43.434Z,79.30
2019-05-06T03:49:49.896Z,79.40
2019-05-06T03:54:55.034Z,79.20
2019-05-06T04:00:07.437Z,79.20
2019-05-06T04:05:18.362Z,79.40
2019-05-06T04:10:26.172Z,79.40
2019-05-06T04:15:49.288Z,79.40
2019-05-06T04:20:56.981Z,79.40
2019-05-06T04:26:24.201Z,79.40
2019-05-06T04:31:38.519Z,79.50
2019-05-06T04:36:44.012Z,79.50
2019-05-06T04:41:58.557Z,79.70
2019-05-06T04:46:58.537Z,80.10
2019-05-06T04:52:03.658Z,80.30
2019-05-06T04:57:08.177Z,80.50
2019-05-06T05:02:13.209Z,80.50
2019-05-06T05:07:17.800Z,80.70
2019-05-06T05:12:23.682Z,80.70
2019-05-06T05:17:33.092Z,80.80
2019-05-06T05:22:37.776Z,80.80
2019-05-06T05:27:42.272Z,81.10
2019-05-06T05:32:46.587Z,81.30
2019-05-06T05:37:52.801Z,81.10
2019-05-06T05:43:02.895Z,80.90
2019-05-06T05:48:09.363Z,81.30
2019-05-06T05:53:13.593Z,81.00
2019-05-06T05:58:18.463Z,80.90
2019-05-06T06:03:22.692Z,80.70
2019-05-06T06:08:27.169Z,80.40
2019-05-06T06:13:32.040Z,80.20
2019-05-06T06:18:43.752Z,80.00
2019-05-06T06:23:49.617Z,80.00
2019-05-06T06:28:53.812Z,79.70
2019-05-06T06:34:02.799Z,79.50
2019-05-06T06:39:09.417Z,79.10
2019-05-06T06:44:22.147Z,78.90
2019-05-06T06:49:26.570Z,78.60
2019-05-06T06:54:32.299Z,78.60
2019-05-06T06:59:38.805Z,78.60
2019-05-06T07:04:47.646Z,78.60
2019-05-06T07:09:52.619Z,79.30
2019-05-06T07:15:03.433Z,79.00
2019-05-06T07:20:09.299Z,79.00
2019-05-06T07:25:13.523Z,79.20
2019-05-06T07:30:19.383Z,79.20
2019-05-06T07:35:37.461Z,79.10
2019-05-06T07:40:29.601Z,79.50
2019-05-06T07:45:35.475Z,79.10
2019-05-06T07:50:39.755Z,79.50
2019-05-06T07:55:44.771Z,80.30
2019-05-06T08:00:48.983Z,81.60
2019-05-06T08:05:58.351Z,82.60
2019-05-06T08:10:59.115Z,84.30
2019-05-06T08:16:03.578Z,86.00
2019-05-06T08:21:09.451Z,86.40
2019-05-06T08:26:17.250Z,86.60
2019-05-06T08:31:22.350Z,87.30
2019-05-06T08:36:32.902Z,87.40
2019-05-06T08:41:37.236Z,87.50
2019-05-06T08:46:43.073Z,87.10
2019-05-06T08:51:53.057Z,86.60
2019-05-06T08:56:58.039Z,87.50
2019-05-06T09:02:06.211Z,87.70
2019-05-06T09:07:12.063Z,86.80
2019-05-06T09:12:16.400Z,87.50
2019-05-06T09:17:22.492Z,87.60
2019-05-06T09:22:46.002Z,87.60
2019-05-06T09:27:52.654Z,88.60
2019-05-06T09:32:56.974Z,87.50
2019-05-06T09:38:02.194Z,87.40
2019-05-06T09:43:06.615Z,88.00
2019-05-06T09:48:12.931Z,87.60
2019-05-06T09:53:19.056Z,86.50
2019-05-06T09:58:23.259Z,85.80
2019-05-06T10:03:27.555Z,85.80
2019-05-06T10:08:32.431Z,85.40
2019-05-06T10:13:36.677Z,85.20
2019-05-06T10:18:40.884Z,83.80
2019-05-06T10:23:45.097Z,83.30
2019-05-06T10:28:52.370Z,83.60
2019-05-06T10:34:14.401Z,82.90
2019-05-06T10:39:19.623Z,82.60
2019-05-06T10:44:43.537Z,82.90
2019-05-06T10:49:47.805Z,82.90
2019-05-06T10:54:52.119Z,82.60
2019-05-06T10:59:56.324Z,81.80
2019-05-06T11:05:02.729Z,81.50
2019-05-06T11:10:06.771Z,81.40
2019-05-06T11:15:12.365Z,81.70
2019-05-06T11:20:16.805Z,81.80
2019-05-06T11:25:23.057Z,82.50
2019-05-06T11:30:42.512Z,83.40
2019-05-06T11:35:57.176Z,83.60
2019-05-06T11:41:01.387Z,84.50
2019-05-06T11:46:07.146Z,85.20
2019-05-06T11:51:13.319Z,84.20
2019-05-06T11:56:17.581Z,84.40
2019-05-06T12:01:23.448Z,84.40
2019-05-06T12:06:47.312Z,85.20
2019-05-06T12:11:53.248Z,85.70
2019-05-06T12:16:57.728Z,86.80
2019-05-06T12:22:02.028Z,88.10
2019-05-06T12:27:06.321Z,89.20
2019-05-06T12:32:15.041Z,90.20
2019-05-06T12:37:20.875Z,90.00
2019-05-06T12:42:26.713Z,90.40
2019-05-06T12:47:35.757Z,90.70
2019-05-06T12:52:43.810Z,90.50
2019-05-06T12:57:46.442Z,90.90
2019-05-06T13:02:53.001Z,90.50
2019-05-06T13:07:56.649Z,90.20
2019-05-06T13:13:02.537Z,90.10
2019-05-06T13:18:07.562Z,89.40
2019-05-06T13:23:20.936Z,88.60
2019-05-06T13:28:22.394Z,87.70
2019-05-06T13:33:44.006Z,87.80
2019-05-06T13:38:47.183Z,88.40
2019-05-06T13:43:54.142Z,86.80
2019-05-06T13:49:03.236Z,88.10
2019-05-06T13:54:07.596Z,88.50
2019-05-06T13:59:12.848Z,88.30
2019-05-06T14:04:17.222Z,88.40
2019-05-06T14:09:31.414Z,89.00
2019-05-06T14:14:27.369Z,89.10
2019-05-06T14:19:33.262Z,88.50
2019-05-06T14:24:39.295Z,89.10
2019-05-06T14:29:45.288Z,90.60
2019-05-06T14:34:49.545Z,90.80
2019-05-06T14:39:59.515Z,89.70
2019-05-06T14:45:01.370Z,85.60
2019-05-06T14:50:14.447Z,80.40
2019-05-06T14:55:18.585Z,79.00
2019-05-06T15:00:23.152Z,77.40
2019-05-06T15:05:27.368Z,77.70
2019-05-06T15:10:32.239Z,79.20
2019-05-06T15:15:36.753Z,74.80
2019-05-06T15:20:42.532Z,70.80
2019-05-06T15:25:46.843Z,74.70
2019-05-06T15:31:04.705Z,66.60
2019-05-06T15:36:22.843Z,68.30
2019-05-06T15:41:27.462Z,68.80
2019-05-06T15:46:32.275Z,61.80
2019-05-06T15:51:36.665Z,65.20
2019-05-06T15:56:42.422Z,61.90
2019-05-06T16:01:46.765Z,63.50
2019-05-06T16:06:52.909Z,58.40
2019-05-06T16:11:57.282Z,60.00
2019-05-06T16:17:01.850Z,64.80
2019-05-06T16:22:06.108Z,59.40
2019-05-06T16:27:12.337Z,61.10
2019-05-06T16:32:16.262Z,63.00
2019-05-06T16:37:22.279Z,60.90
2019-05-06T16:42:26.425Z,59.90
2019-05-06T16:47:37.010Z,62.60
2019-05-06T16:52:44.929Z,62.00
2019-05-06T16:57:53.360Z,61.80
2019-05-06T17:03:05.285Z,63.00
2019-05-06T17:08:09.557Z,60.40
2019-05-06T17:13:13.860Z,62.20
2019-05-06T17:18:18.045Z,63.50
2019-05-06T17:23:22.472Z,62.60
2019-05-06T17:28:37.638Z,62.10
2019-05-06T17:33:43.936Z,62.00
2019-05-06T17:38:52.796Z,62.00
2019-05-06T17:43:57.024Z,64.40
2019-05-06T17:49:02.874Z,63.10
2019-05-06T17:54:07.096Z,65.20
2019-05-06T17:59:11.344Z,67.30
2019-05-06T18:04:17.241Z,68.90
2019-05-06T18:09:22.368Z,68.10
2019-05-06T18:14:26.701Z,70.00
2019-05-06T18:19:33.002Z,69.00
2019-05-06T18:24:36.980Z,71.00
2019-05-06T18:29:42.353Z,71.30
2019-05-06T18:34:46.727Z,71.40
2019-05-06T18:39:53.007Z,71.80
2019-05-06T18:44:57.042Z,71.50
2019-05-06T18:50:02.345Z,72.90
2019-05-06T18:55:06.878Z,73.50
2019-05-06T19:00:11.095Z,73.70
2019-05-06T19:05:32.892Z,74.30
2019-05-06T19:10:37.252Z,74.60
2019-05-06T19:15:41.524Z,75.00
2019-05-06T19:20:45.742Z,75.20
2019-05-06T19:25:51.898Z,74.90
2019-05-06T19:30:55.909Z,74.90
2019-05-06T19:36:00.317Z,75.00
2019-05-06T19:41:05.959Z,75.30
2019-05-06T19:51:45.135Z,76.10
2019-05-06T19:57:02.291Z,75.30
2019-05-06T20:02:27.348Z,76.00
2019-05-06T20:18:55.567Z,76.30
2019-05-06T20:24:14.935Z,76.30
2019-05-06T20:40:14.678Z,75.90
2019-05-06T20:50:28.475Z,75.70
2019-05-06T20:55:44.992Z,75.80
2019-05-06T21:01:03.329Z,75.00
2019-05-06T21:07:56.445Z,75.50
2019-05-06T21:11:35.674Z,75.50
2019-05-06T21:17:08.368Z,75.40
2019-05-06T21:22:32.006Z,74.90
2019-05-06T21:27:29.302Z,75.00
2019-05-06T21:32:36.990Z,75.20
2019-05-06T21:37:44.807Z,75.60
2019-05-06T21:42:58.462Z,75.40
2019-05-06T21:48:07.526Z,75.10
2019-05-06T21:53:16.613Z,75.20
2019-05-06T21:58:33.212Z,75.40
2019-05-06T22:03:53.766Z,75.40
2019-05-06T22:08:47.255Z,75.50
2019-05-06T22:14:01.133Z,75.50
2019-05-06T22:19:06.898Z,75.70
2019-05-06T22:24:12.077Z,75.60
2019-05-06T22:29:28.318Z,75.90
2019-05-06T22:34:33.066Z,76.10
2019-05-06T22:39:37.688Z,76.50
2019-05-06T22:44:45.569Z,76.30
2019-05-06T22:50:01.934Z,76.50
2019-05-06T22:55:18.416Z,76.80
2019-05-06T23:00:27.511Z,77.00
2019-05-06T23:05:34.670Z,77.10
2019-05-06T23:10:42.204Z,77.10
2019-05-06T23:15:52.396Z,77.60
2019-05-06T23:21:02.367Z,77.80
2019-05-06T23:26:22.778Z,78.50
2019-05-06T23:31:28.736Z,78.80
2019-05-06T23:37:02.676Z,78.60
2019-05-06T23:43:03.215Z,78.90
2019-05-06T23:49:18.120Z,79.20
2019-05-06T23:54:47.753Z,79.40
